Time;durP1;ratioP1;P1;durP2;ratioP2;P2;SDS_P1;SDS_P2;PMS_P1;PMS_P2;Temp;Humidity;BMP_temperature;BMP_pressure;BME280_temperature;BME280_humidity;BME280_pressure;Samples;Min_cycle;Max_cycle;Signal;HPM_P1;HPM_P2
2023/09/18 00:01:23;;;;;;;12.63;6.80;;;21.90;99.90;;;;;;7289707;19;20232;-87
2023/09/18 00:03:54;;;;;;;14.70;6.60;;;22.00;99.90;;;;;;7291804;19;20215;-87
2023/09/18 00:06:23;;;;;;;11.60;6.43;;;22.20;99.90;;;;;;7291626;19;20214;-88
2023/09/18 00:08:51;;;;;;;13.70;6.90;;;22.30;99.90;;;;;;7289002;19;20181;-87
2023/09/18 00:11:17;;;;;;;13.00;7.30;;;22.40;99.90;;;;;;7287885;19;20213;-87
2023/09/18 00:13:43;;;;;;;14.47;7.97;;;22.50;99.90;;;;;;7298664;19;20201;-87
2023/09/18 00:16:09;;;;;;;13.63;6.97;;;22.60;99.90;;;;;;7312918;19;20190;-87
2023/09/18 00:18:38;;;;;;;14.27;7.10;;;22.60;99.90;;;;;;7290344;19;20177;-86
2023/09/18 00:21:06;;;;;;;15.03;7.90;;;22.60;99.90;;;;;;7289133;19;20188;-87
2023/09/18 00:23:35;;;;;;;10.83;7.00;;;22.70;99.90;;;;;;7290300;19;20226;-87
2023/09/18 00:26:01;;;;;;;13.20;7.40;;;22.70;99.90;;;;;;7290350;19;20201;-87
2023/09/18 00:28:27;;;;;;;14.90;7.90;;;22.70;99.90;;;;;;7291114;19;20213;-87
2023/09/18 00:30:55;;;;;;;16.70;7.67;;;22.80;99.90;;;;;;7289609;19;20193;-87
2023/09/18 00:33:22;;;;;;;14.73;8.13;;;22.80;99.90;;;;;;7290348;19;20298;-89
2023/09/18 00:35:51;;;;;;;19.00;8.27;;;22.80;99.90;;;;;;7291180;19;20185;-90
2023/09/18 00:38:19;;;;;;;17.27;8.33;;;22.80;99.90;;;;;;7289520;19;20203;-90
2023/09/18 00:40:45;;;;;;;16.13;8.53;;;22.80;99.90;;;;;;7287753;19;20205;-89
2023/09/18 00:43:11;;;;;;;18.03;8.90;;;22.70;99.90;;;;;;7309623;19;20249;-89
2023/09/18 00:45:44;;;;;;;14.43;8.00;;;22.70;99.90;;;;;;7288383;19;20200;-89
2023/09/18 00:48:11;;;;;;;15.37;8.60;;;22.70;99.90;;;;;;7288909;19;20193;-88
2023/09/18 00:50:38;;;;;;;14.93;8.30;;;22.70;99.90;;;;;;7287032;19;20271;-89
2023/09/18 00:53:11;;;;;;;16.03;8.27;;;22.70;99.90;;;;;;7286087;19;20213;-88
2023/09/18 00:55:40;;;;;;;14.07;8.10;;;22.70;99.90;;;;;;7290128;19;20199;-87
2023/09/18 00:58:07;;;;;;;13.97;7.90;;;22.60;99.90;;;;;;7287171;19;20188;-90
2023/09/18 01:00:34;;;;;;;15.93;8.43;;;22.50;99.90;;;;;;7285573;19;20617;-87
2023/09/18 01:03:01;;;;;;;14.73;7.53;;;22.50;99.90;;;;;;7287573;19;20193;-87
2023/09/18 01:05:27;;;;;;;12.47;7.20;;;22.50;99.90;;;;;;7285983;19;20197;-87
2023/09/18 01:07:54;;;;;;;14.90;7.67;;;22.40;99.90;;;;;;7288118;19;20244;-88
2023/09/18 01:10:24;;;;;;;12.90;7.23;;;22.30;99.90;;;;;;7288033;19;20213;-88
2023/09/18 01:12:58;;;;;;;12.27;6.80;;;22.30;99.90;;;;;;7287560;19;20205;-89
2023/09/18 01:15:35;;;;;;;13.17;7.03;;;22.30;99.90;;;;;;7285725;19;20184;-88
2023/09/18 01:18:03;;;;;;;11.47;6.83;;;22.20;99.90;;;;;;7286988;19;20240;-89
2023/09/18 01:20:31;;;;;;;10.80;6.50;;;22.20;99.90;;;;;;7287065;19;20196;-88
2023/09/18 01:22:57;;;;;;;13.80;6.83;;;22.20;99.90;;;;;;7286200;19;20554;-88
2023/09/18 01:25:23;;;;;;;13.23;6.60;;;22.30;99.90;;;;;;7286105;19;20184;-88
2023/09/18 01:27:52;;;;;;;12.40;7.03;;;22.30;99.90;;;;;;7284579;19;20265;-88
2023/09/18 01:30:28;;;;;;;10.70;6.77;;;22.30;99.90;;;;;;7287206;19;20188;-88
2023/09/18 01:32:57;;;;;;;13.63;6.40;;;22.20;99.90;;;;;;7285843;19;20232;-88
2023/09/18 01:35:29;;;;;;;14.30;6.53;;;22.10;99.90;;;;;;7285011;19;20650;-88
2023/09/18 01:38:00;;;;;;;12.33;6.57;;;22.00;99.90;;;;;;7285709;19;20193;-88
2023/09/18 01:40:27;;;;;;;12.93;6.60;;;22.10;99.90;;;;;;7284872;19;20184;-88
2023/09/18 01:42:53;;;;;;;13.93;6.80;;;22.10;99.90;;;;;;7282930;19;20181;-89
2023/09/18 01:45:19;;;;;;;14.70;7.03;;;22.00;99.90;;;;;;7284928;19;20196;-88
2023/09/18 01:47:46;;;;;;;12.63;7.47;;;22.10;99.90;;;;;;7284402;19;20805;-88
2023/09/18 01:50:13;;;;;;;15.33;8.17;;;22.10;99.90;;;;;;7307511;19;20665;-88
2023/09/18 01:52:39;;;;;;;13.87;7.73;;;22.00;99.90;;;;;;7285176;19;20507;-88
2023/09/18 01:55:05;;;;;;;14.57;7.73;;;22.00;99.90;;;;;;7285537;19;20202;-88
2023/09/18 01:57:32;;;;;;;14.53;7.80;;;21.90;99.90;;;;;;7286492;19;20212;-88
2023/09/18 01:59:57;;;;;;;12.37;7.87;;;21.70;99.90;;;;;;7285292;19;20192;-88
2023/09/18 02:02:23;;;;;;;14.93;8.20;;;21.70;99.90;;;;;;7286282;19;20203;-88
2023/09/18 02:04:52;;;;;;;13.40;8.23;;;21.70;99.90;;;;;;7285533;19;20210;-89
2023/09/18 02:07:18;;;;;;;15.47;7.70;;;21.80;99.90;;;;;;7292466;19;20193;-88
2023/09/18 02:09:51;;;;;;;14.50;7.53;;;21.80;99.90;;;;;;7289896;19;20626;-88
2023/09/18 02:12:20;;;;;;;14.73;7.53;;;21.80;99.90;;;;;;7292003;19;20193;-88
2023/09/18 02:14:48;;;;;;;15.47;7.67;;;21.90;99.90;;;;;;7290921;19;20188;-88
2023/09/18 02:17:22;;;;;;;12.37;7.23;;;21.90;99.90;;;;;;7291764;19;20642;-89
2023/09/18 02:19:51;;;;;;;14.33;7.57;;;21.80;99.90;;;;;;7290645;19;20518;-87
2023/09/18 02:22:17;;;;;;;14.07;6.70;;;21.90;99.90;;;;;;7290134;19;20184;-87
2023/09/18 02:24:46;;;;;;;11.53;6.70;;;21.80;99.90;;;;;;7296642;19;20214;-88
2023/09/18 02:27:12;;;;;;;14.80;7.37;;;21.60;99.90;;;;;;7307715;19;20187;-88
2023/09/18 02:29:38;;;;;;;13.50;6.73;;;21.60;99.90;;;;;;7308627;19;20302;-88
2023/09/18 02:32:04;;;;;;;12.13;6.00;;;21.50;99.90;;;;;;7292892;19;20204;-88
2023/09/18 02:34:33;;;;;;;12.93;6.77;;;21.40;99.90;;;;;;7283719;19;20206;-88
2023/09/18 02:36:59;;;;;;;14.40;6.83;;;21.30;99.90;;;;;;7290947;19;20251;-88
2023/09/18 02:39:25;;;;;;;11.43;6.47;;;21.30;99.90;;;;;;7292003;19;20589;-88
2023/09/18 02:41:54;;;;;;;15.67;6.13;;;21.20;99.90;;;;;;7291050;19;20177;-88
2023/09/18 02:44:22;;;;;;;10.87;5.63;;;21.30;99.90;;;;;;7290838;19;20239;-88
2023/09/18 02:46:48;;;;;;;14.43;5.93;;;21.30;99.90;;;;;;7291302;19;20606;-88
2023/09/18 02:49:14;;;;;;;12.37;5.40;;;21.40;99.90;;;;;;7290014;19;20649;-88
2023/09/18 02:51:40;;;;;;;9.03;4.90;;;21.40;99.90;;;;;;7313941;19;20193;-87
2023/09/18 02:54:06;;;;;;;12.03;5.33;;;21.20;99.90;;;;;;7286279;19;20205;-88
2023/09/18 02:56:35;;;;;;;10.77;5.37;;;21.10;99.90;;;;;;7290868;19;20207;-86
2023/09/18 02:59:03;;;;;;;14.03;5.47;;;21.10;99.90;;;;;;7290844;19;20186;-88
2023/09/18 03:01:29;;;;;;;10.03;4.83;;;21.10;99.90;;;;;;7290216;19;20576;-89
2023/09/18 03:03:56;;;;;;;9.23;4.57;;;21.20;99.90;;;;;;7290926;19;20197;-88
2023/09/18 03:06:24;;;;;;;10.40;4.83;;;21.30;99.90;;;;;;7290809;19;20217;-88
2023/09/18 03:08:50;;;;;;;10.80;4.90;;;21.20;99.90;;;;;;7288395;19;20188;-88
2023/09/18 03:11:19;;;;;;;10.30;4.70;;;21.10;99.90;;;;;;7291967;19;20213;-88
2023/09/18 03:13:51;;;;;;;13.40;5.03;;;21.10;99.90;;;;;;7291330;19;20593;-88
2023/09/18 03:16:19;;;;;;;8.83;4.27;;;21.20;99.90;;;;;;7289280;19;20499;-88
2023/09/18 03:18:51;;;;;;;10.77;4.60;;;21.10;99.90;;;;;;7290311;19;20195;-87
2023/09/18 03:21:20;;;;;;;11.53;4.53;;;20.80;99.90;;;;;;7289260;19;20567;-88
2023/09/18 03:23:46;;;;;;;8.10;4.20;;;20.80;99.90;;;;;;7289958;19;20243;-88
2023/09/18 03:26:12;;;;;;;8.97;4.27;;;20.70;99.90;;;;;;7307198;19;20205;-88
2023/09/18 03:28:38;;;;;;;7.53;3.73;;;20.70;99.90;;;;;;7303621;19;20250;-88
2023/09/18 03:31:06;;;;;;;10.17;3.43;;;20.70;99.90;;;;;;7290469;19;20190;-88
2023/09/18 03:33:33;;;;;;;7.43;3.27;;;20.60;99.90;;;;;;7289694;19;20195;-88
2023/09/18 03:36:04;;;;;;;8.00;3.53;;;20.70;99.90;;;;;;7286170;19;20203;-88
2023/09/18 03:38:35;;;;;;;7.27;3.57;;;20.70;99.90;;;;;;7289260;19;20196;-87
2023/09/18 03:41:03;;;;;;;8.10;3.13;;;20.70;99.90;;;;;;7288173;19;20239;-88
2023/09/18 03:43:29;;;;;;;9.80;3.40;;;20.70;99.90;;;;;;7289270;19;20211;-87
2023/09/18 03:45:55;;;;;;;7.77;2.90;;;20.70;99.90;;;;;;7290529;19;20185;-88
2023/09/18 03:48:24;;;;;;;7.43;2.80;;;20.70;99.90;;;;;;7291591;19;20631;-87
2023/09/18 03:50:50;;;;;;;8.43;3.03;;;20.70;99.90;;;;;;7290336;19;20187;-87
2023/09/18 03:53:18;;;;;;;8.67;2.83;;;20.70;99.90;;;;;;7288095;19;20801;-88
2023/09/18 03:55:48;;;;;;;5.77;2.50;;;20.70;99.90;;;;;;7288363;19;20186;-88
2023/09/18 03:58:15;;;;;;;6.57;2.63;;;20.80;99.90;;;;;;7287613;19;20685;-87
2023/09/18 04:00:43;;;;;;;5.57;2.57;;;20.80;99.90;;;;;;7309577;19;20202;-88
2023/09/18 04:03:14;;;;;;;7.13;2.77;;;20.80;99.90;;;;;;7289590;19;20538;-88
2023/09/18 04:05:45;;;;;;;5.27;2.27;;;20.70;99.90;;;;;;7269247;19;20201;-88
2023/09/18 04:08:11;;;;;;;7.07;2.57;;;20.70;99.90;;;;;;7310920;19;20190;-88
2023/09/18 04:10:55;;;;;;;7.00;2.10;;;20.70;99.90;;;;;;7286158;19;20200;-88
2023/09/18 04:13:28;;;;;;;7.23;2.00;;;20.70;99.90;;;;;;7185309;19;2004444;-88
2023/09/18 04:15:56;;;;;;;7.23;2.17;;;20.70;99.90;;;;;;7290806;19;20196;-87
2023/09/18 04:18:23;;;;;;;5.07;2.00;;;20.70;99.90;;;;;;7291742;19;20224;-89
2023/09/18 04:20:58;;;;;;;6.00;2.10;;;20.80;99.90;;;;;;7292032;19;20526;-88
2023/09/18 04:23:27;;;;;;;4.63;1.93;;;20.60;99.90;;;;;;7286347;19;20192;-88
2023/09/18 04:25:54;;;;;;;6.67;1.87;;;20.60;99.90;;;;;;7289332;19;20211;-87
2023/09/18 04:28:22;;;;;;;6.43;1.83;;;20.60;99.90;;;;;;7287310;19;20287;-87
2023/09/18 04:30:50;;;;;;;6.83;1.90;;;20.60;99.90;;;;;;7287209;19;20530;-87
2023/09/18 04:33:25;;;;;;;4.17;1.90;;;20.70;99.90;;;;;;7285491;19;20199;-88
2023/09/18 04:35:54;;;;;;;6.13;1.80;;;20.60;99.90;;;;;;7286237;19;20197;-88
2023/09/18 04:38:20;;;;;;;4.10;1.53;;;20.60;99.90;;;;;;7289517;19;20200;-87
2023/09/18 04:40:49;;;;;;;3.83;1.57;;;20.60;99.90;;;;;;7290450;19;20202;-88
2023/09/18 04:43:16;;;;;;;5.27;2.00;;;20.50;99.90;;;;;;7292793;19;20188;-88
2023/09/18 04:45:55;;;;;;;4.40;1.60;;;20.60;99.90;;;;;;7290033;19;20191;-88
2023/09/18 04:51:16;;;;;;;4.87;2.00;;;20.40;99.90;;;;;;7288582;19;20644;-87
2023/09/18 04:53:45;;;;;;;5.20;1.90;;;20.40;99.90;;;;;;7267992;19;20181;-88
2023/09/18 04:56:11;;;;;;;6.47;1.70;;;20.40;99.90;;;;;;7358884;19;20182;-91
2023/09/18 04:58:43;;;;;;;5.30;1.70;;;20.40;99.90;;;;;;7288311;19;20197;-87
2023/09/18 05:01:10;;;;;;;3.93;1.73;;;20.40;99.90;;;;;;7291020;19;20211;-86
2023/09/18 05:03:38;;;;;;;4.07;1.70;;;20.40;99.90;;;;;;7288301;19;20325;-87
2023/09/18 05:06:04;;;;;;;4.87;1.60;;;20.50;99.90;;;;;;7287694;19;20194;-86
2023/09/18 05:08:48;;;;;;;7.57;1.90;;;20.50;99.90;;;;;;7286675;19;20699;-87
2023/09/18 05:11:16;;;;;;;2.97;1.67;;;20.40;99.90;;;;;;7264673;19;20609;-90
2023/09/18 05:13:42;;;;;;;4.53;1.97;;;20.40;99.90;;;;;;7307762;19;20806;-87
2023/09/18 05:16:08;;;;;;;5.23;1.80;;;20.40;99.90;;;;;;7300373;19;20186;-87
2023/09/18 05:18:45;;;;;;;5.10;2.07;;;20.40;99.90;;;;;;7288734;19;20196;-89
2023/09/18 05:21:11;;;;;;;6.97;2.10;;;20.30;99.90;;;;;;7288442;19;20257;-88
2023/09/18 05:23:37;;;;;;;4.17;1.73;;;20.30;99.90;;;;;;7287475;19;20201;-88
2023/09/18 05:26:03;;;;;;;4.07;1.90;;;20.30;99.90;;;;;;7287178;19;20177;-89
2023/09/18 05:28:32;;;;;;;6.07;1.93;;;20.20;99.90;;;;;;7288175;19;20194;-89
2023/09/18 05:30:58;;;;;;;7.30;1.87;;;20.20;99.90;;;;;;7287439;19;20205;-87
2023/09/18 05:33:29;;;;;;;5.23;2.10;;;20.10;99.90;;;;;;7287180;19;20612;-90
2023/09/18 05:35:55;;;;;;;8.13;2.40;;;20.10;99.90;;;;;;7287404;19;20195;-88
2023/09/18 05:38:23;;;;;;;8.07;2.03;;;20.00;99.90;;;;;;7289129;19;20187;-88
2023/09/18 05:40:49;;;;;;;5.10;1.77;;;20.00;99.90;;;;;;7294273;19;20187;-85
2023/09/18 05:43:15;;;;;;;5.47;1.83;;;19.90;99.90;;;;;;7291058;19;20186;-84
2023/09/18 05:45:41;;;;;;;5.10;2.10;;;19.90;99.90;;;;;;7310287;19;20182;-84
2023/09/18 05:48:19;;;;;;;6.03;2.17;;;19.90;99.90;;;;;;7290297;19;20182;-87
2023/09/18 05:50:54;;;;;;;8.60;2.20;;;19.90;99.90;;;;;;7293322;19;20216;-88
2023/09/18 05:53:20;;;;;;;6.53;1.90;;;19.90;99.90;;;;;;7272483;19;20600;-89
2023/09/18 05:55:57;;;;;;;9.03;2.53;;;19.90;99.90;;;;;;7292758;19;20189;-89
2023/09/18 05:58:25;;;;;;;7.03;2.30;;;19.90;99.90;;;;;;7293134;19;20682;-89
2023/09/18 06:00:53;;;;;;;6.57;2.10;;;19.80;99.90;;;;;;7293437;19;20185;-88
2023/09/18 06:03:23;;;;;;;10.00;2.10;;;19.80;99.90;;;;;;7293037;19;20190;-88
2023/09/18 06:05:51;;;;;;;6.60;2.20;;;19.70;99.90;;;;;;7294201;19;20222;-89
2023/09/18 06:08:18;;;;;;;6.37;2.20;;;19.80;99.90;;;;;;7291873;19;20206;-89
2023/09/18 06:10:48;;;;;;;7.93;2.20;;;19.90;99.90;;;;;;7292895;19;20184;-89
2023/09/18 06:13:16;;;;;;;7.40;2.30;;;19.80;99.90;;;;;;7300859;19;20191;-88
2023/09/18 06:15:55;;;;;;;6.83;2.27;;;19.90;99.90;;;;;;7297036;19;20233;-88
2023/09/18 06:18:22;;;;;;;7.37;2.13;;;20.10;99.90;;;;;;7293385;19;20186;-89
2023/09/18 06:20:49;;;;;;;5.80;2.53;;;20.00;99.90;;;;;;7293791;19;20259;-89
2023/09/18 06:23:15;;;;;;;12.57;2.53;;;20.00;99.90;;;;;;7295263;19;20176;-89
2023/09/18 06:25:45;;;;;;;7.60;2.57;;;20.10;99.90;;;;;;7314121;19;20239;-89
2023/09/18 06:28:12;;;;;;;10.07;2.67;;;20.10;99.90;;;;;;7295631;19;20595;-90
2023/09/18 06:30:38;;;;;;;6.30;2.23;;;20.10;99.90;;;;;;7293987;19;20673;-89
2023/09/18 06:33:07;;;;;;;8.27;2.53;;;20.20;99.90;;;;;;7291815;19;20550;-89
2023/09/18 06:35:39;;;;;;;8.57;2.60;;;20.30;99.90;;;;;;7292280;19;20701;-89
2023/09/18 06:38:11;;;;;;;8.10;2.37;;;20.40;99.90;;;;;;7292110;19;20200;-89
2023/09/18 06:40:38;;;;;;;9.20;2.67;;;20.50;99.90;;;;;;7293789;19;20193;-89
2023/09/18 06:43:06;;;;;;;8.37;2.30;;;20.60;99.90;;;;;;7293946;19;20180;-89
2023/09/18 06:45:39;;;;;;;7.33;2.60;;;20.50;99.90;;;;;;7294179;19;20194;-90
2023/09/18 06:48:09;;;;;;;8.87;2.63;;;20.40;99.90;;;;;;7294157;19;20598;-88
2023/09/18 06:50:36;;;;;;;6.70;2.87;;;20.40;99.90;;;;;;7291351;19;20201;-89
2023/09/18 06:53:02;;;;;;;6.03;2.97;;;20.50;99.90;;;;;;7288303;19;20210;-90
2023/09/18 06:55:39;;;;;;;8.10;3.27;;;20.60;99.90;;;;;;7290160;19;20271;-89
2023/09/18 06:58:07;;;;;;;7.67;2.87;;;20.60;99.90;;;;;;7293450;19;20691;-89
2023/09/18 07:00:36;;;;;;;9.27;2.63;;;20.70;99.90;;;;;;7292394;19;20207;-89
2023/09/18 07:03:03;;;;;;;7.83;3.13;;;20.80;99.90;;;;;;7293284;19;20657;-89
2023/09/18 07:05:29;;;;;;;8.70;2.93;;;20.80;99.90;;;;;;7290809;19;20208;-89
2023/09/18 07:07:57;;;;;;;6.33;2.63;;;20.70;99.90;;;;;;7292179;19;20191;-89
2023/09/18 07:10:23;;;;;;;5.40;2.93;;;20.70;99.90;;;;;;7292276;19;20192;-89
2023/09/18 07:12:49;;;;;;;8.00;2.83;;;20.60;99.90;;;;;;7293657;19;20194;-88
2023/09/18 07:15:18;;;;;;;9.30;2.80;;;20.80;99.90;;;;;;7292587;19;20237;-89
2023/09/18 07:17:48;;;;;;;8.97;3.00;;;21.00;99.90;;;;;;7302716;19;20763;-89
2023/09/18 07:20:19;;;;;;;9.70;2.53;;;21.40;99.90;;;;;;7313199;19;20192;-89
2023/09/18 07:22:52;;;;;;;7.33;2.40;;;21.70;99.90;;;;;;7293968;19;20213;-89
2023/09/18 07:25:21;;;;;;;6.17;2.47;;;21.80;99.90;;;;;;7289224;19;20236;-89
2023/09/18 07:27:47;;;;;;;7.83;2.33;;;21.90;99.90;;;;;;7290874;19;20184;-88
2023/09/18 07:30:28;;;;;;;9.23;2.47;;;22.80;99.90;;;;;;7313754;19;20664;-89
2023/09/18 07:33:00;;;;;;;8.57;2.57;;;23.10;99.90;;;;;;7189435;19;2004468;-90
2023/09/18 07:35:29;;;;;;;7.43;2.33;;;22.90;99.90;;;;;;7290947;19;20189;-89
2023/09/18 07:37:58;;;;;;;6.40;2.30;;;23.80;99.90;;;;;;7290810;19;20189;-89
2023/09/18 07:40:24;;;;;;;7.20;2.03;;;24.80;99.90;;;;;;7291414;19;20213;-89
2023/09/18 07:42:50;;;;;;;5.65;2.00;;;25.60;99.90;;;;;;7290238;19;20185;-89
2023/09/18 07:45:18;;;;;;;7.80;2.25;;;27.00;99.90;;;;;;7292857;19;20197;-89
2023/09/18 07:47:49;;;;;;;5.75;1.77;;;26.80;99.90;;;;;;7291292;19;20192;-88
2023/09/18 07:50:16;;;;;;;6.97;2.28;;;27.70;99.90;;;;;;7292030;19;20673;-88
2023/09/18 07:52:42;;;;;;;3.88;1.80;;;27.90;99.90;;;;;;7313611;19;20205;-89
2023/09/18 07:55:14;;;;;;;5.05;2.22;;;28.20;99.90;;;;;;7291879;19;20181;-90
2023/09/18 07:57:47;;;;;;;6.18;2.38;;;28.20;99.90;;;;;;7293153;19;20206;-89
2023/09/18 08:00:15;;;;;;;6.70;2.63;;;28.40;99.90;;;;;;7289731;19;20267;-89
2023/09/18 08:02:41;;;;;;;8.20;2.45;;;26.80;99.90;;;;;;7310771;19;20189;-89
2023/09/18 08:05:11;;;;;;;7.10;2.35;;;26.30;99.90;;;;;;7291863;19;20189;-89
2023/09/18 08:07:37;;;;;;;6.15;2.28;;;26.70;99.90;;;;;;7291242;19;20608;-89
2023/09/18 08:10:08;;;;;;;8.15;2.80;;;26.00;99.90;;;;;;7291506;19;20197;-89
2023/09/18 08:12:36;;;;;;;6.78;2.60;;;25.40;99.90;;;;;;7290110;19;20182;-89
2023/09/18 08:15:03;;;;;;;8.15;2.90;;;25.20;99.90;;;;;;7288773;19;20189;-89
2023/09/18 08:17:29;;;;;;;8.20;2.70;;;25.60;99.90;;;;;;7291358;19;20197;-87
2023/09/18 08:19:56;;;;;;;8.90;2.50;;;25.70;99.90;;;;;;7289483;19;20197;-87
2023/09/18 08:22:23;;;;;;;11.35;2.83;;;25.60;99.90;;;;;;7292469;19;20296;-87
2023/09/18 08:24:52;;;;;;;6.70;2.60;;;25.30;99.90;;;;;;7292037;19;20199;-87
2023/09/18 08:27:19;;;;;;;6.60;2.60;;;25.00;99.90;;;;;;7289062;19;20200;-87
2023/09/18 08:29:47;;;;;;;9.37;2.87;;;24.20;99.90;;;;;;7288548;19;20222;-85
2023/09/18 08:32:13;;;;;;;9.67;2.70;;;23.70;99.90;;;;;;7311082;19;20192;-88
2023/09/18 08:34:39;;;;;;;9.57;3.00;;;23.40;99.90;;;;;;7290003;19;20197;-87
2023/09/18 08:37:06;;;;;;;10.67;3.50;;;23.40;99.90;;;;;;7291265;19;20196;-87
2023/09/18 08:39:32;;;;;;;19.13;3.33;;;23.50;99.90;;;;;;7290117;19;20208;-87
2023/09/18 08:42:04;;;;;;;11.20;3.20;;;23.60;99.90;;;;;;7289906;19;20199;-87
2023/09/18 08:44:31;;;;;;;9.73;3.10;;;23.50;99.90;;;;;;7288473;19;20256;-87
2023/09/18 08:46:57;;;;;;;8.17;3.40;;;23.40;99.90;;;;;;7290055;19;20287;-87
2023/09/18 08:49:24;;;;;;;7.37;3.30;;;23.30;99.90;;;;;;7288144;19;20189;-87
2023/09/18 08:51:55;;;;;;;9.30;3.80;;;23.10;99.90;;;;;;7288811;19;20188;-86
2023/09/18 08:54:24;;;;;;;9.17;3.80;;;22.80;99.90;;;;;;7288876;19;20193;-87
2023/09/18 08:56:52;;;;;;;10.97;4.10;;;22.70;99.90;;;;;;7288722;19;20192;-87
2023/09/18 08:59:22;;;;;;;7.13;3.87;;;22.70;99.90;;;;;;7290976;19;20189;-88
2023/09/18 09:01:48;;;;;;;8.83;3.93;;;22.90;99.90;;;;;;7290726;19;20217;-87
2023/09/18 09:04:14;;;;;;;8.97;3.63;;;22.70;99.90;;;;;;7301405;19;20180;-87
2023/09/18 09:06:43;;;;;;;10.77;3.90;;;22.70;99.90;;;;;;7308328;19;20193;-87
2023/09/18 09:09:14;;;;;;;11.03;4.27;;;22.80;99.90;;;;;;7304396;19;20191;-88
2023/09/18 09:11:49;;;;;;;9.63;3.90;;;22.70;99.90;;;;;;7288668;19;20229;-86
2023/09/18 09:14:21;;;;;;;9.90;3.43;;;22.50;99.90;;;;;;7273967;19;20197;-88
2023/09/18 09:16:48;;;;;;;10.63;4.17;;;22.40;99.90;;;;;;7288333;19;20191;-88
2023/09/18 09:19:30;;;;;;;11.03;3.77;;;22.50;99.90;;;;;;7304249;19;20217;-87
2023/09/18 09:21:57;;;;;;;11.80;3.80;;;22.40;99.90;;;;;;7288727;19;20196;-87
2023/09/18 09:24:44;;;;;;;11.90;4.30;;;22.40;99.90;;;;;;7288181;19;20211;-87
2023/09/18 09:27:10;;;;;;;8.10;3.93;;;22.70;99.90;;;;;;7288325;19;20185;-87
2023/09/18 09:29:40;;;;;;;8.07;3.50;;;22.70;99.90;;;;;;7286824;19;20185;-88
2023/09/18 09:32:19;;;;;;;10.27;3.57;;;22.90;99.90;;;;;;7285509;19;20184;-87
2023/09/18 09:34:46;;;;;;;8.57;3.10;;;23.10;99.90;;;;;;7266178;19;20185;-88
2023/09/18 09:37:13;;;;;;;7.70;3.20;;;23.10;99.90;;;;;;7308413;19;20184;-88
2023/09/18 09:39:50;;;;;;;12.33;3.50;;;23.10;99.90;;;;;;7289246;19;20208;-88
2023/09/18 09:42:28;;;;;;;11.13;3.67;;;23.20;99.90;;;;;;7266829;19;20803;-88
2023/09/18 09:45:12;;;;;;;10.07;3.40;;;23.20;99.90;;;;;;7291080;19;20189;-88
2023/09/18 09:47:38;;;;;;;11.00;3.63;;;23.20;99.90;;;;;;7289325;19;20220;-87
2023/09/18 09:50:19;;;;;;;10.80;3.03;;;23.30;99.90;;;;;;7286250;19;20211;-88
2023/09/18 09:52:53;;;;;;;8.17;3.30;;;22.90;99.90;;;;;;7269812;19;20820;-87
2023/09/18 09:55:24;;;;;;;11.20;3.57;;;22.70;99.90;;;;;;7287273;19;20224;-87
2023/09/18 09:57:57;;;;;;;11.73;3.83;;;22.50;99.90;;;;;;7278026;19;20662;-87
2023/09/18 10:00:40;;;;;;;8.13;3.60;;;22.40;99.90;;;;;;7279527;19;20560;-87
2023/09/18 10:03:09;;;;;;;11.23;3.80;;;22.50;99.90;;;;;;7286280;19;20197;-88
2023/09/18 10:05:44;;;;;;;9.07;3.70;;;22.50;99.90;;;;;;7285590;19;20294;-87
2023/09/18 10:08:26;;;;;;;10.53;3.63;;;22.50;99.90;;;;;;7286323;19;20200;-87
2023/09/18 10:11:18;;;;;;;7.57;3.87;;;22.60;99.90;;;;;;7182185;19;2004628;-88
2023/09/18 10:14:01;;;;;;;9.83;3.47;;;22.50;99.90;;;;;;7184718;19;2004501;-87
2023/09/18 10:16:31;;;;;;;9.87;3.57;;;22.60;99.90;;;;;;7286293;19;20216;-88
2023/09/18 10:19:33;;;;;;;10.93;3.87;;;22.60;99.90;;;;;;7286613;19;20193;-88
2023/09/18 10:22:16;;;;;;;10.43;3.70;;;22.50;99.90;;;;;;7184207;19;2004710;-88
2023/09/18 10:24:49;;;;;;;9.07;3.40;;;22.40;99.90;;;;;;7287282;19;20188;-87
2023/09/18 10:27:17;;;;;;;10.77;3.47;;;22.20;99.90;;;;;;7293569;19;20188;-87
2023/09/18 10:29:45;;;;;;;11.87;3.50;;;22.30;99.90;;;;;;7295719;19;20185;-88
2023/09/18 10:32:15;;;;;;;9.73;3.50;;;22.40;99.90;;;;;;7294833;19;20188;-88
2023/09/18 10:34:47;;;;;;;9.77;3.87;;;22.70;99.90;;;;;;7292700;19;20214;-87
2023/09/18 10:37:15;;;;;;;8.90;3.20;;;23.20;99.90;;;;;;7293732;19;20611;-89
2023/09/18 10:39:44;;;;;;;9.97;2.97;;;23.40;99.90;;;;;;7288546;19;20191;-88
2023/09/18 10:42:12;;;;;;;12.17;3.37;;;23.40;99.90;;;;;;7294238;19;20280;-89
2023/09/18 10:44:41;;;;;;;11.83;3.30;;;23.50;99.90;;;;;;7295102;19;20263;-88
2023/09/18 10:47:10;;;;;;;5.87;2.60;;;23.50;99.90;;;;;;7292751;19;20291;-89
2023/09/18 10:49:36;;;;;;;9.13;3.00;;;24.20;99.90;;;;;;7293295;19;20287;-89
2023/09/18 10:52:03;;;;;;;9.70;3.05;;;25.80;99.90;;;;;;7293353;19;20192;-87
2023/09/18 10:54:31;;;;;;;6.85;2.47;;;27.00;99.90;;;;;;7291484;19;20210;-88
2023/09/18 10:57:01;;;;;;;6.10;2.20;;;28.50;99.90;;;;;;7291564;19;20197;-89
2023/09/18 10:59:28;;;;;;;8.80;2.35;;;29.50;99.90;;;;;;7294061;19;20210;-90
2023/09/18 11:01:54;;;;;;;9.52;2.35;;;30.20;99.90;;;;;;7295365;19;20188;-89
2023/09/18 11:04:21;;;;;;;7.00;2.58;;;29.50;99.90;;;;;;7293364;19;20213;-88
2023/09/18 11:06:59;;;;;;;7.90;2.40;;;29.70;99.90;;;;;;7301843;19;20200;-89
2023/09/18 11:09:27;;;;;;;5.88;2.00;;;29.70;99.90;;;;;;7294820;19;20197;-89
2023/09/18 11:12:02;;;;;;;6.70;2.20;;;30.20;99.90;;;;;;7292158;19;20177;-89
2023/09/18 11:14:49;;;;;;;8.95;2.63;;;30.00;99.90;;;;;;7293407;19;20217;-89
2023/09/18 11:17:40;;;;;;;5.32;2.00;;;30.20;99.90;;;;;;7285568;19;20674;-89
2023/09/18 11:20:25;;;;;;;6.45;2.42;;;29.10;99.90;;;;;;7293420;19;20193;-89
2023/09/18 11:23:18;;;;;;;7.88;2.75;;;27.70;99.90;;;;;;7189494;19;2004404;-90
2023/09/18 11:25:48;;;;;;;5.97;2.58;;;27.10;99.90;;;;;;7277321;19;20197;-90
2023/09/18 11:28:25;;;;;;;6.88;2.50;;;26.50;99.90;;;;;;7303050;19;20192;-89
2023/09/18 11:31:00;;;;;;;9.07;2.63;;;26.10;99.90;;;;;;7294850;19;20210;-89
2023/09/18 11:33:46;;;;;;;7.00;2.00;;;26.20;99.90;;;;;;7293084;19;20196;-87
2023/09/18 11:36:34;;;;;;;9.10;2.58;;;27.50;99.90;;;;;;7293731;19;20221;-88
2023/09/18 11:39:04;;;;;;;6.72;2.15;;;29.30;99.90;;;;;;7190827;19;2004449;-89
2023/09/18 11:41:33;;;;;;;7.03;2.30;;;29.90;99.90;;;;;;7292887;19;20185;-88
2023/09/18 11:44:29;;;;;;;7.40;2.13;;;29.80;99.90;;;;;;7291206;19;20201;-89
2023/09/18 11:47:00;;;;;;;8.75;2.60;;;29.10;99.90;;;;;;7191401;19;2004385;-89
2023/09/18 11:49:31;;;;;;;6.88;2.20;;;27.80;99.90;;;;;;7293046;19;20223;-89
2023/09/18 11:52:01;;;;;;;6.03;2.20;;;27.90;99.90;;;;;;7291301;19;20192;-88
2023/09/18 11:54:37;;;;;;;7.07;1.98;;;28.60;99.90;;;;;;7289620;19;20188;-90
2023/09/18 11:57:07;;;;;;;6.18;1.85;;;29.30;99.90;;;;;;7290200;19;20529;-90
2023/09/18 11:59:36;;;;;;;8.27;1.90;;;28.80;99.90;;;;;;7293570;19;20185;-90
2023/09/18 12:02:08;;;;;;;7.43;2.15;;;28.50;99.90;;;;;;7291325;19;20189;-89
2023/09/18 12:04:42;;;;;;;7.07;2.30;;;28.10;99.90;;;;;;7292355;19;21114;-89
2023/09/18 12:07:11;;;;;;;7.72;1.90;;;28.90;99.90;;;;;;7291510;19;20184;-89
2023/09/18 12:09:37;;;;;;;5.10;2.08;;;30.10;99.90;;;;;;7291667;19;20206;-90
2023/09/18 12:12:18;;;;;;;6.05;1.90;;;31.00;99.90;;;;;;7291266;19;20582;-90
2023/09/18 12:14:44;;;;;;;4.00;1.90;;;31.30;99.90;;;;;;7292681;19;20188;-89
2023/09/18 12:17:15;;;;;;;5.82;2.10;;;31.20;99.90;;;;;;7292986;19;20192;-90
2023/09/18 12:19:54;;;;;;;4.82;1.92;;;31.40;99.90;;;;;;7291666;19;20192;-89
2023/09/18 12:22:30;;;;;;;6.35;2.00;;;31.80;99.90;;;;;;7188997;19;2004398;-90
2023/09/18 12:25:24;;;;;;;7.35;1.73;;;32.30;99.90;;;;;;7288391;19;20185;-90
2023/09/18 12:27:54;;;;;;;6.57;2.10;;;31.80;99.90;;;;;;7188225;19;2004435;-90
2023/09/18 12:30:25;;;;;;;5.40;2.10;;;31.10;99.90;;;;;;7290073;19;20181;-89
2023/09/18 12:33:01;;;;;;;4.38;1.98;;;30.90;99.90;;;;;;7289625;19;20285;-89
2023/09/18 12:35:30;;;;;;;3.42;1.80;;;30.90;99.90;;;;;;7289739;19;20260;-89
2023/09/18 12:38:27;;;;;;;4.40;1.88;;;30.60;99.90;;;;;;7282451;19;20185;-90
2023/09/18 12:41:00;;;;;;;7.20;1.90;;;30.60;99.90;;;;;;7188564;19;2004748;-90
2023/09/18 12:43:31;;;;;;;4.95;1.98;;;30.60;99.90;;;;;;7289986;19;20265;-89
2023/09/18 12:45:57;;;;;;;6.28;2.00;;;30.10;99.90;;;;;;7290100;19;20203;-90
2023/09/18 12:48:28;;;;;;;5.93;1.65;;;28.90;99.90;;;;;;7290030;19;20189;-89
2023/09/18 12:50:54;;;;;;;4.40;1.70;;;28.20;99.90;;;;;;7286038;19;20756;-89
2023/09/18 12:53:26;;;;;;;5.40;1.75;;;27.70;99.90;;;;;;7288666;19;20240;-89
2023/09/18 12:55:54;;;;;;;7.80;1.92;;;27.40;99.90;;;;;;7288711;19;20189;-89
2023/09/18 12:58:24;;;;;;;4.05;1.90;;;27.20;99.90;;;;;;7290109;19;20196;-90
2023/09/18 13:00:50;;;;;;;7.30;1.73;;;27.00;99.90;;;;;;7289015;19;20181;-89